sensor_id;sensor_type;location;lat;lon;timestamp;pressure;altitude;pressure_sealevel;temperature;humidity
20105;BME280;10212;42.714;23.310;2022-08-03T00:04:28;95295.66;;;18.28;68.69
20105;BME280;10212;42.714;23.310;2022-08-03T00:09:29;95297.50;;;18.28;68.45
20105;BME280;10212;42.714;23.310;2022-08-03T00:14:30;95302.81;;;18.11;69.54
20105;BME280;10212;42.714;23.310;2022-08-03T00:19:31;95290.34;;;18.06;69.76
20105;BME280;10212;42.714;23.310;2022-08-03T00:24:31;95297.69;;;17.99;70.47
20105;BME280;10212;42.714;23.310;2022-08-03T00:29:33;95300.19;;;17.88;70.96
20105;BME280;10212;42.714;23.310;2022-08-03T00:34:33;95300.34;;;17.81;71.04
20105;BME280;10212;42.714;23.310;2022-08-03T00:39:34;95297.63;;;17.76;71.74
20105;BME280;10212;42.714;23.310;2022-08-03T00:44:39;95296.19;;;17.86;71.51
20105;BME280;10212;42.714;23.310;2022-08-03T00:49:40;95294.59;;;17.84;71.16
20105;BME280;10212;42.714;23.310;2022-08-03T00:54:41;95298.25;;;17.83;71.84
20105;BME280;10212;42.714;23.310;2022-08-03T00:59:42;95297.50;;;17.66;72.03
20105;BME280;10212;42.714;23.310;2022-08-03T01:04:42;95301.19;;;17.65;71.99
20105;BME280;10212;42.714;23.310;2022-08-03T01:20:19;95287.72;;;17.44;72.30
20105;BME280;10212;42.714;23.310;2022-08-03T01:25:30;95290.03;;;17.40;71.44
20105;BME280;10212;42.714;23.310;2022-08-03T01:30:35;95289.88;;;17.13;72.51
20105;BME280;10212;42.714;23.310;2022-08-03T01:35:49;95291.09;;;16.93;73.84
20105;BME280;10212;42.714;23.310;2022-08-03T01:40:52;95290.69;;;16.84;74.83
20105;BME280;10212;42.714;23.310;2022-08-03T01:45:55;95289.34;;;16.81;74.77
20105;BME280;10212;42.714;23.310;2022-08-03T01:50:56;95298.16;;;16.87;74.53
20105;BME280;10212;42.714;23.310;2022-08-03T01:56:00;95294.63;;;16.81;74.80
20105;BME280;10212;42.714;23.310;2022-08-03T02:01:04;95284.84;;;16.64;75.42
20105;BME280;10212;42.714;23.310;2022-08-03T02:06:06;95293.31;;;16.67;75.85
20105;BME280;10212;42.714;23.310;2022-08-03T02:11:09;95288.28;;;16.65;75.57
20105;BME280;10212;42.714;23.310;2022-08-03T02:16:10;95290.94;;;16.82;75.35
20105;BME280;10212;42.714;23.310;2022-08-03T02:21:14;95292.22;;;16.62;75.81
20105;BME280;10212;42.714;23.310;2022-08-03T02:26:16;95286.56;;;16.42;76.86
20105;BME280;10212;42.714;23.310;2022-08-03T02:31:27;95286.56;;;16.42;76.70
20105;BME280;10212;42.714;23.310;2022-08-03T02:36:36;95285.63;;;16.48;75.68
20105;BME280;10212;42.714;23.310;2022-08-03T02:41:42;95285.97;;;16.51;75.89
20105;BME280;10212;42.714;23.310;2022-08-03T02:46:47;95276.78;;;16.54;75.60
20105;BME280;10212;42.714;23.310;2022-08-03T02:51:51;95284.16;;;16.40;75.48
20105;BME280;10212;42.714;23.310;2022-08-03T02:56:53;95287.75;;;16.34;75.95
20105;BME280;10212;42.714;23.310;2022-08-03T03:01:57;95294.50;;;16.30;74.52
20105;BME280;10212;42.714;23.310;2022-08-03T03:07:01;95299.78;;;16.59;74.18
20105;BME280;10212;42.714;23.310;2022-08-03T03:12:09;95307.97;;;16.33;75.60
20105;BME280;10212;42.714;23.310;2022-08-03T03:17:14;95315.34;;;16.19;75.81
20105;BME280;10212;42.714;23.310;2022-08-03T03:22:18;95316.09;;;16.02;76.29
20105;BME280;10212;42.714;23.310;2022-08-03T03:27:24;95319.34;;;16.22;76.59
20105;BME280;10212;42.714;23.310;2022-08-03T03:32:30;95318.09;;;16.12;76.09
20105;BME280;10212;42.714;23.310;2022-08-03T03:37:32;95327.84;;;16.00;76.94
20105;BME280;10212;42.714;23.310;2022-08-03T03:42:35;95319.16;;;15.75;78.50
20105;BME280;10212;42.714;23.310;2022-08-03T03:47:37;95323.41;;;15.64;79.45
20105;BME280;10212;42.714;23.310;2022-08-03T03:52:39;95334.50;;;15.66;79.35
20105;BME280;10212;42.714;23.310;2022-08-03T03:57:42;95344.88;;;16.09;78.66
20105;BME280;10212;42.714;23.310;2022-08-03T04:02:46;95333.91;;;16.12;77.32
20105;BME280;10212;42.714;23.310;2022-08-03T04:08:08;95329.78;;;15.93;78.88
20105;BME280;10212;42.714;23.310;2022-08-03T04:13:34;95330.69;;;15.98;78.64
20105;BME280;10212;42.714;23.310;2022-08-03T04:18:37;95333.91;;;16.12;77.79
20105;BME280;10212;42.714;23.310;2022-08-03T04:23:42;95335.63;;;16.48;75.71
20105;BME280;10212;42.714;23.310;2022-08-03T04:28:45;95336.13;;;16.33;76.26
20105;BME280;10212;42.714;23.310;2022-08-03T04:33:46;95334.59;;;16.49;74.92
20105;BME280;10212;42.714;23.310;2022-08-03T04:39:01;95337.13;;;16.44;75.27
20105;BME280;10212;42.714;23.310;2022-08-03T04:44:03;95352.56;;;16.40;75.28
20105;BME280;10212;42.714;23.310;2022-08-03T04:49:05;95341.00;;;16.53;74.27
20105;BME280;10212;42.714;23.310;2022-08-03T04:54:11;95344.63;;;16.52;74.75
20105;BME280;10212;42.714;23.310;2022-08-03T04:59:12;95364.50;;;16.72;75.44
20105;BME280;10212;42.714;23.310;2022-08-03T05:04:12;95357.44;;;16.90;74.36
20105;BME280;10212;42.714;23.310;2022-08-03T05:09:13;95363.66;;;17.13;73.33
20105;BME280;10212;42.714;23.310;2022-08-03T05:14:14;95367.16;;;17.18;73.34
20105;BME280;10212;42.714;23.310;2022-08-03T05:19:14;95366.25;;;17.42;72.69
20105;BME280;10212;42.714;23.310;2022-08-03T05:24:15;95378.94;;;17.45;72.06
20105;BME280;10212;42.714;23.310;2022-08-03T05:29:15;95382.28;;;17.40;73.35
20105;BME280;10212;42.714;23.310;2022-08-03T05:34:16;95376.13;;;17.86;71.55
20105;BME280;10212;42.714;23.310;2022-08-03T05:39:16;95385.22;;;17.78;71.48
20105;BME280;10212;42.714;23.310;2022-08-03T05:44:17;95392.13;;;17.79;71.67
20105;BME280;10212;42.714;23.310;2022-08-03T05:49:18;95389.69;;;17.95;70.77
20105;BME280;10212;42.714;23.310;2022-08-03T05:54:19;95390.00;;;18.16;70.04
20105;BME280;10212;42.714;23.310;2022-08-03T05:59:19;95391.25;;;18.30;70.08
20105;BME280;10212;42.714;23.310;2022-08-03T06:04:21;95390.50;;;18.35;69.88
20105;BME280;10212;42.714;23.310;2022-08-03T06:09:21;95394.13;;;18.51;69.28
20105;BME280;10212;42.714;23.310;2022-08-03T06:14:21;95393.13;;;18.58;68.85
20105;BME280;10212;42.714;23.310;2022-08-03T06:19:22;95389.94;;;18.78;68.85
20105;BME280;10212;42.714;23.310;2022-08-03T06:24:23;95386.75;;;19.03;67.42
20105;BME280;10212;42.714;23.310;2022-08-03T06:29:24;95389.69;;;19.30;66.11
20105;BME280;10212;42.714;23.310;2022-08-03T06:34:24;95385.75;;;19.37;65.47
20105;BME280;10212;42.714;23.310;2022-08-03T06:39:25;95379.88;;;19.63;64.46
20105;BME280;10212;42.714;23.310;2022-08-03T06:44:25;95386.63;;;19.86;64.19
20105;BME280;10212;42.714;23.310;2022-08-03T06:49:26;95381.56;;;20.18;61.65
20105;BME280;10212;42.714;23.310;2022-08-03T06:54:26;95373.38;;;20.19;61.87
20105;BME280;10212;42.714;23.310;2022-08-03T06:59:27;95376.16;;;20.51;60.26
20105;BME280;10212;42.714;23.310;2022-08-03T07:04:28;95376.19;;;20.61;59.92
20105;BME280;10212;42.714;23.310;2022-08-03T07:09:28;95374.34;;;20.72;59.52
20105;BME280;10212;42.714;23.310;2022-08-03T07:14:29;95372.81;;;20.92;58.45
20105;BME280;10212;42.714;23.310;2022-08-03T07:19:30;95377.38;;;21.12;57.48
20105;BME280;10212;42.714;23.310;2022-08-03T07:24:30;95377.38;;;21.07;57.20
20105;BME280;10212;42.714;23.310;2022-08-03T07:29:31;95385.88;;;21.35;56.80
20105;BME280;10212;42.714;23.310;2022-08-03T07:34:32;95381.09;;;21.53;55.66
20105;BME280;10212;42.714;23.310;2022-08-03T07:39:32;95381.13;;;21.68;55.37
20105;BME280;10212;42.714;23.310;2022-08-03T07:44:33;95377.66;;;21.78;54.54
20105;BME280;10212;42.714;23.310;2022-08-03T07:49:38;95372.88;;;21.96;53.33
20105;BME280;10212;42.714;23.310;2022-08-03T07:54:38;95373.88;;;22.21;53.17
20105;BME280;10212;42.714;23.310;2022-08-03T07:59:39;95377.53;;;22.41;52.08
20105;BME280;10212;42.714;23.310;2022-08-03T08:04:40;95381.44;;;22.54;51.58
20105;BME280;10212;42.714;23.310;2022-08-03T08:09:41;95374.47;;;22.74;51.57
20105;BME280;10212;42.714;23.310;2022-08-03T08:14:42;95385.91;;;23.20;50.06
20105;BME280;10212;42.714;23.310;2022-08-03T08:19:45;95384.06;;;23.20;48.99
20105;BME280;10212;42.714;23.310;2022-08-03T08:24:45;95380.47;;;23.35;48.68
20105;BME280;10212;42.714;23.310;2022-08-03T08:29:48;95378.56;;;23.46;47.82
20105;BME280;10212;42.714;23.310;2022-08-03T08:34:48;95366.94;;;23.67;47.51
20105;BME280;10212;42.714;23.310;2022-08-03T08:39:49;95368.91;;;23.85;47.79
20105;BME280;10212;42.714;23.310;2022-08-03T08:44:50;95366.72;;;24.17;47.29
20105;BME280;10212;42.714;23.310;2022-08-03T08:49:52;95359.09;;;24.35;45.56
20105;BME280;10212;42.714;23.310;2022-08-03T08:54:56;95353.19;;;24.38;46.11
20105;BME280;10212;42.714;23.310;2022-08-03T08:59:58;95348.25;;;24.70;40.11
20105;BME280;10212;42.714;23.310;2022-08-03T09:05:01;95353.75;;;24.98;42.34
20105;BME280;10212;42.714;23.310;2022-08-03T09:10:02;95356.03;;;25.24;42.07
20105;BME280;10212;42.714;23.310;2022-08-03T09:15:23;95345.69;;;25.37;41.35
20105;BME280;10212;42.714;23.310;2022-08-03T09:20:26;95351.69;;;25.62;40.64
20105;BME280;10212;42.714;23.310;2022-08-03T09:30:29;95341.19;;;25.99;39.47
20105;BME280;10212;42.714;23.310;2022-08-03T09:35:29;95346.72;;;26.31;39.71
20105;BME280;10212;42.714;23.310;2022-08-03T09:40:34;95337.13;;;26.58;38.96
20105;BME280;10212;42.714;23.310;2022-08-03T09:45:37;95340.63;;;26.44;37.92
20105;BME280;10212;42.714;23.310;2022-08-03T09:56:00;95336.31;;;26.94;38.62
20105;BME280;10212;42.714;23.310;2022-08-03T10:01:03;95325.63;;;26.94;38.71
20105;BME280;10212;42.714;23.310;2022-08-03T10:06:17;95325.22;;;27.24;38.98
20105;BME280;10212;42.714;23.310;2022-08-03T10:11:31;95309.22;;;27.33;38.48
20105;BME280;10212;42.714;23.310;2022-08-03T10:16:36;95314.56;;;27.56;37.22
20105;BME280;10212;42.714;23.310;2022-08-03T10:21:40;95311.06;;;27.78;37.90
20105;BME280;10212;42.714;23.310;2022-08-03T10:26:43;95312.00;;;28.23;36.43
20105;BME280;10212;42.714;23.310;2022-08-03T10:31:45;95311.16;;;27.96;35.96
20105;BME280;10212;42.714;23.310;2022-08-03T10:36:46;95310.16;;;27.60;36.45
20105;BME280;10212;42.714;23.310;2022-08-03T10:41:49;95312.84;;;27.28;38.53
20105;BME280;10212;42.714;23.310;2022-08-03T10:46:50;95311.91;;;27.10;37.81
20105;BME280;10212;42.714;23.310;2022-08-03T10:51:51;95313.66;;;26.92;38.07
20105;BME280;10212;42.714;23.310;2022-08-03T10:56:51;95303.09;;;27.32;37.32
20105;BME280;10212;42.714;23.310;2022-08-03T11:02:11;95306.50;;;27.24;38.32
20105;BME280;10212;42.714;23.310;2022-08-03T11:07:22;95283.44;;;27.37;38.23
20105;BME280;10212;42.714;23.310;2022-08-03T11:12:28;95292.78;;;27.72;37.98
20105;BME280;10212;42.714;23.310;2022-08-03T11:17:32;95276.72;;;27.72;37.20
20105;BME280;10212;42.714;23.310;2022-08-03T11:22:49;95279.91;;;27.91;37.10
20105;BME280;10212;42.714;23.310;2022-08-03T11:28:26;95270.13;;;27.87;37.19
20105;BME280;10212;42.714;23.310;2022-08-03T11:33:30;95273.38;;;28.15;37.59
20105;BME280;10212;42.714;23.310;2022-08-03T11:38:31;95268.91;;;28.02;35.84
20105;BME280;10212;42.714;23.310;2022-08-03T11:48:42;95264.75;;;28.36;35.32
20105;BME280;10212;42.714;23.310;2022-08-03T11:53:43;95254.81;;;28.37;34.93
20105;BME280;10212;42.714;23.310;2022-08-03T11:58:48;95262.41;;;28.44;35.13
20105;BME280;10212;42.714;23.310;2022-08-03T12:03:50;95259.94;;;27.98;35.43
20105;BME280;10212;42.714;23.310;2022-08-03T12:08:51;95259.03;;;27.71;35.42
20105;BME280;10212;42.714;23.310;2022-08-03T12:13:51;95258.44;;;27.51;35.54
20105;BME280;10212;42.714;23.310;2022-08-03T12:19:03;95240.22;;;27.62;35.77
20105;BME280;10212;42.714;23.310;2022-08-03T12:24:04;95247.09;;;28.53;34.99
20105;BME280;10212;42.714;23.310;2022-08-03T12:29:05;95245.59;;;28.11;36.35
20105;BME280;10212;42.714;23.310;2022-08-03T12:34:05;95238.88;;;28.85;34.69
20105;BME280;10212;42.714;23.310;2022-08-03T12:39:08;95231.41;;;29.74;33.14
20105;BME280;10212;42.714;23.310;2022-08-03T12:44:11;95230.09;;;30.96;31.64
20105;BME280;10212;42.714;23.310;2022-08-03T12:49:13;95218.66;;;30.99;31.18
20105;BME280;10212;42.714;23.310;2022-08-03T12:54:18;95227.88;;;30.55;31.74
20105;BME280;10212;42.714;23.310;2022-08-03T12:59:23;95223.38;;;29.56;31.94
20105;BME280;10212;42.714;23.310;2022-08-03T13:09:40;95209.38;;;30.75;29.91
20105;BME280;10212;42.714;23.310;2022-08-03T13:14:44;95218.53;;;29.89;31.92
20105;BME280;10212;42.714;23.310;2022-08-03T13:19:46;95213.00;;;29.46;32.88
20105;BME280;10212;42.714;23.310;2022-08-03T13:24:49;95207.38;;;29.30;34.01
20105;BME280;10212;42.714;23.310;2022-08-03T13:29:49;95210.59;;;29.14;34.72
20105;BME280;10212;42.714;23.310;2022-08-03T13:34:50;95212.47;;;28.96;34.11
20105;BME280;10212;42.714;23.310;2022-08-03T13:39:51;95215.97;;;28.87;34.58
20105;BME280;10212;42.714;23.310;2022-08-03T13:44:51;95207.78;;;28.84;34.20
20105;BME280;10212;42.714;23.310;2022-08-03T13:49:52;95216.28;;;28.95;34.12
20105;BME280;10212;42.714;23.310;2022-08-03T13:54:53;95205.56;;;28.95;33.98
20105;BME280;10212;42.714;23.310;2022-08-03T13:59:53;95208.91;;;28.74;34.31
20105;BME280;10212;42.714;23.310;2022-08-03T14:04:54;95204.97;;;28.62;34.31
20105;BME280;10212;42.714;23.310;2022-08-03T14:09:54;95197.88;;;28.67;35.23
20105;BME280;10212;42.714;23.310;2022-08-03T14:14:56;95201.88;;;29.17;34.78
20105;BME280;10212;42.714;23.310;2022-08-03T14:19:56;95211.56;;;29.09;34.58
20105;BME280;10212;42.714;23.310;2022-08-03T14:24:57;95204.78;;;28.85;34.81
20105;BME280;10212;42.714;23.310;2022-08-03T14:29:57;95206.06;;;28.70;35.70
20105;BME280;10212;42.714;23.310;2022-08-03T14:35:00;95207.94;;;28.25;37.44
20105;BME280;10212;42.714;23.310;2022-08-03T14:40:01;95207.59;;;28.00;38.61
20105;BME280;10212;42.714;23.310;2022-08-03T14:45:01;95219.72;;;27.16;39.69
20105;BME280;10212;42.714;23.310;2022-08-03T14:50:03;95221.44;;;27.12;40.03
20105;BME280;10212;42.714;23.310;2022-08-03T14:55:05;95220.09;;;26.78;41.03
20105;BME280;10212;42.714;23.310;2022-08-03T15:00:06;95223.78;;;26.91;40.57
20105;BME280;10212;42.714;23.310;2022-08-03T15:05:07;95217.13;;;26.79;40.75
20105;BME280;10212;42.714;23.310;2022-08-03T15:10:09;95221.78;;;26.73;40.91
20105;BME280;10212;42.714;23.310;2022-08-03T15:15:10;95220.03;;;26.92;40.95
20105;BME280;10212;42.714;23.310;2022-08-03T15:20:11;95224.94;;;26.99;41.25
20105;BME280;10212;42.714;23.310;2022-08-03T15:25:11;95233.94;;;26.80;42.88
20105;BME280;10212;42.714;23.310;2022-08-03T15:30:12;95250.31;;;26.41;43.98
20105;BME280;10212;42.714;23.310;2022-08-03T15:35:13;95256.69;;;26.17;45.21
20105;BME280;10212;42.714;23.310;2022-08-03T15:40:13;95265.13;;;25.68;47.78
20105;BME280;10212;42.714;23.310;2022-08-03T15:45:14;95266.03;;;24.97;51.75
20105;BME280;10212;42.714;23.310;2022-08-03T15:50:14;95270.09;;;23.87;59.12
20105;BME280;10212;42.714;23.310;2022-08-03T15:55:15;95260.09;;;22.44;68.84
20105;BME280;10212;42.714;23.310;2022-08-03T16:00:15;95260.31;;;21.97;71.14
20105;BME280;10212;42.714;23.310;2022-08-03T16:05:16;95251.34;;;21.72;72.71
20105;BME280;10212;42.714;23.310;2022-08-03T16:10:17;95244.44;;;21.71;77.60
20105;BME280;10212;42.714;23.310;2022-08-03T16:15:18;95258.97;;;22.00;75.65
20105;BME280;10212;42.714;23.310;2022-08-03T16:20:20;95253.41;;;22.01;72.43
20105;BME280;10212;42.714;23.310;2022-08-03T16:25:21;95266.81;;;22.26;70.61
20105;BME280;10212;42.714;23.310;2022-08-03T16:30:21;95268.28;;;22.53;70.70
20105;BME280;10212;42.714;23.310;2022-08-03T16:35:22;95258.41;;;22.64;67.41
20105;BME280;10212;42.714;23.310;2022-08-03T16:40:23;95265.72;;;22.37;64.01
20105;BME280;10212;42.714;23.310;2022-08-03T16:45:24;95262.78;;;22.39;62.90
20105;BME280;10212;42.714;23.310;2022-08-03T16:50:25;95258.97;;;22.50;60.53
20105;BME280;10212;42.714;23.310;2022-08-03T16:55:26;95260.78;;;22.66;60.30
20105;BME280;10212;42.714;23.310;2022-08-03T17:00:27;95266.88;;;22.61;60.30
20105;BME280;10212;42.714;23.310;2022-08-03T17:05:28;95257.34;;;22.60;58.66
20105;BME280;10212;42.714;23.310;2022-08-03T17:10:29;95260.84;;;22.55;61.05
20105;BME280;10212;42.714;23.310;2022-08-03T17:15:29;95257.97;;;22.46;61.89
20105;BME280;10212;42.714;23.310;2022-08-03T17:20:31;95261.72;;;22.35;62.21
20105;BME280;10212;42.714;23.310;2022-08-03T17:25:33;95265.00;;;22.21;63.16
20105;BME280;10212;42.714;23.310;2022-08-03T17:30:35;95264.47;;;22.19;62.46
20105;BME280;10212;42.714;23.310;2022-08-03T17:35:54;95273.00;;;22.16;62.03
20105;BME280;10212;42.714;23.310;2022-08-03T17:40:56;95266.91;;;22.10;62.19
20105;BME280;10212;42.714;23.310;2022-08-03T17:45:57;95268.88;;;22.39;59.03
20105;BME280;10212;42.714;23.310;2022-08-03T17:56:32;95271.72;;;22.03;63.33
20105;BME280;10212;42.714;23.310;2022-08-03T18:01:39;95272.28;;;21.95;64.65
20105;BME280;10212;42.714;23.310;2022-08-03T18:07:03;95274.41;;;21.87;65.54
20105;BME280;10212;42.714;23.310;2022-08-03T18:12:09;95291.44;;;21.60;66.55
20105;BME280;10212;42.714;23.310;2022-08-03T18:17:20;95293.06;;;21.35;68.37
20105;BME280;10212;42.714;23.310;2022-08-03T18:22:21;95294.69;;;21.15;68.80
20105;BME280;10212;42.714;23.310;2022-08-03T18:27:23;95298.91;;;21.01;70.26
20105;BME280;10212;42.714;23.310;2022-08-03T18:32:25;95302.56;;;20.73;71.15
20105;BME280;10212;42.714;23.310;2022-08-03T18:37:28;95304.66;;;20.71;71.05
20105;BME280;10212;42.714;23.310;2022-08-03T18:42:30;95328.78;;;20.80;71.85
20105;BME280;10212;42.714;23.310;2022-08-03T18:47:56;95323.75;;;20.73;72.00
20105;BME280;10212;42.714;23.310;2022-08-03T18:53:15;95334.91;;;20.81;72.11
20105;BME280;10212;42.714;23.310;2022-08-03T18:58:24;95344.16;;;20.73;71.96
20105;BME280;10212;42.714;23.310;2022-08-03T19:03:34;95344.19;;;20.89;72.79
20105;BME280;10212;42.714;23.310;2022-08-03T19:08:46;95342.53;;;20.62;73.05
20105;BME280;10212;42.714;23.310;2022-08-03T19:13:49;95342.78;;;20.55;73.87
20105;BME280;10212;42.714;23.310;2022-08-03T19:18:50;95347.00;;;20.51;74.60
20105;BME280;10212;42.714;23.310;2022-08-03T19:23:54;95356.53;;;20.46;75.39
20105;BME280;10212;42.714;23.310;2022-08-03T19:28:56;95349.66;;;20.51;75.55
20105;BME280;10212;42.714;23.310;2022-08-03T19:33:59;95356.19;;;20.32;76.48
20105;BME280;10212;42.714;23.310;2022-08-03T19:39:01;95342.19;;;20.32;75.54
20105;BME280;10212;42.714;23.310;2022-08-03T19:44:05;95358.28;;;20.20;76.53
20105;BME280;10212;42.714;23.310;2022-08-03T19:49:13;95354.94;;;20.45;76.06
20105;BME280;10212;42.714;23.310;2022-08-03T19:54:14;95358.06;;;20.27;76.86
20105;BME280;10212;42.714;23.310;2022-08-03T19:59:18;95349.06;;;20.33;76.53
20105;BME280;10212;42.714;23.310;2022-08-03T20:04:19;95348.47;;;20.20;76.88
20105;BME280;10212;42.714;23.310;2022-08-03T20:09:19;95348.16;;;20.11;77.77
20105;BME280;10212;42.714;23.310;2022-08-03T20:14:20;95355.81;;;20.08;76.72
20105;BME280;10212;42.714;23.310;2022-08-03T20:19:21;95356.34;;;20.05;78.11
20105;BME280;10212;42.714;23.310;2022-08-03T20:24:26;95369.47;;;19.89;78.64
20105;BME280;10212;42.714;23.310;2022-08-03T20:29:30;95366.00;;;19.83;77.28
20105;BME280;10212;42.714;23.310;2022-08-03T20:34:33;95367.06;;;19.82;78.01
20105;BME280;10212;42.714;23.310;2022-08-03T20:39:33;95374.75;;;19.89;75.59
20105;BME280;10212;42.714;23.310;2022-08-03T20:44:35;95383.00;;;19.60;77.49
20105;BME280;10212;42.714;23.310;2022-08-03T20:49:37;95375.94;;;19.66;77.37
20105;BME280;10212;42.714;23.310;2022-08-03T20:54:39;95378.47;;;19.50;78.26
20105;BME280;10212;42.714;23.310;2022-08-03T20:59:40;95379.31;;;19.56;77.70
20105;BME280;10212;42.714;23.310;2022-08-03T21:04:43;95383.16;;;19.43;78.31
20105;BME280;10212;42.714;23.310;2022-08-03T21:09:49;95388.41;;;19.37;78.67
20105;BME280;10212;42.714;23.310;2022-08-03T21:19:58;95393.06;;;19.25;78.82
20105;BME280;10212;42.714;23.310;2022-08-03T21:25:03;95398.03;;;19.21;79.34
20105;BME280;10212;42.714;23.310;2022-08-03T21:30:07;95396.28;;;19.04;80.53
20105;BME280;10212;42.714;23.310;2022-08-03T21:35:09;95410.72;;;18.97;80.40
20105;BME280;10212;42.714;23.310;2022-08-03T21:40:13;95415.03;;;18.80;80.55
20105;BME280;10212;42.714;23.310;2022-08-03T21:45:13;95412.47;;;18.63;80.52
20105;BME280;10212;42.714;23.310;2022-08-03T21:50:14;95418.56;;;18.64;80.48
20105;BME280;10212;42.714;23.310;2022-08-03T21:55:15;95417.53;;;18.42;81.04
20105;BME280;10212;42.714;23.310;2022-08-03T22:00:18;95418.41;;;18.31;81.53
20105;BME280;10212;42.714;23.310;2022-08-03T22:05:19;95412.38;;;18.30;82.42
20105;BME280;10212;42.714;23.310;2022-08-03T22:10:20;95421.63;;;18.33;82.00
20105;BME280;10212;42.714;23.310;2022-08-03T22:15:21;95421.63;;;18.55;80.61
20105;BME280;10212;42.714;23.310;2022-08-03T22:20:21;95431.66;;;18.53;79.51
20105;BME280;10212;42.714;23.310;2022-08-03T22:25:28;95424.75;;;18.52;80.06
20105;BME280;10212;42.714;23.310;2022-08-03T22:30:29;95417.78;;;18.41;81.18
20105;BME280;10212;42.714;23.310;2022-08-03T22:35:34;95424.88;;;18.40;81.77
20105;BME280;10212;42.714;23.310;2022-08-03T22:40:38;95415.06;;;18.36;81.58
20105;BME280;10212;42.714;23.310;2022-08-03T22:45:43;95421.75;;;18.43;80.53
20105;BME280;10212;42.714;23.310;2022-08-03T22:50:45;95423.50;;;18.55;81.33
20105;BME280;10212;42.714;23.310;2022-08-03T22:55:50;95419.91;;;18.44;82.14
20105;BME280;10212;42.714;23.310;2022-08-03T23:00:56;95423.06;;;18.41;81.89
20105;BME280;10212;42.714;23.310;2022-08-03T23:06:00;95423.25;;;18.17;82.26
20105;BME280;10212;42.714;23.310;2022-08-03T23:11:05;95421.56;;;18.11;81.97
20105;BME280;10212;42.714;23.310;2022-08-03T23:16:07;95428.34;;;18.06;80.48
20105;BME280;10212;42.714;23.310;2022-08-03T23:21:10;95427.72;;;17.99;81.67
20105;BME280;10212;42.714;23.310;2022-08-03T23:26:12;95426.28;;;18.08;78.33
20105;BME280;10212;42.714;23.310;2022-08-03T23:31:13;95432.69;;;17.95;78.81
20105;BME280;10212;42.714;23.310;2022-08-03T23:36:17;95437.19;;;17.95;78.79
20105;BME280;10212;42.714;23.310;2022-08-03T23:41:18;95428.84;;;17.69;80.64
20105;BME280;10212;42.714;23.310;2022-08-03T23:46:20;95422.72;;;17.80;81.05
